• Join FlightAware (Why Join?)
  • Login
  • US Flag 
02:33AM EST


 

Airport Tracker/Info


-or-


 

Live Flight TrackerFlight Track Log ✈ CSN6337 ✈ 11-Mar-2014 ✈ ZYTL / DLC - ZSNJ / NKG

Flight Track Log - Related Links

Times and Time Zones

All times are in EDT time to prevent confusion due to time zone crossing. See the CSN6337 flight status page for this flight to view local times or setup timezone preferences in your user account.

Time Position Orientation Groundspeed Altitude Reporting Facility
EDT Latitude Longitude Course Direction KTS MPH feet Rate Location/Type
08:06PM 38.8657 121.4979 198° South  Level Estimated
08:07PM 38.7698 121.4589 198° South  Level Estimated
08:08PM 38.6739 121.4200 198° South  Level Estimated
08:09PM 38.5779 121.3813 198° South  Level Estimated
08:10PM 38.4819 121.3426 198° South  Level Estimated
08:11PM 38.3860 121.3040 197° South  Level Estimated
08:12PM 38.2900 121.2656 197° South  Level Estimated
08:13PM 38.1940 121.2272 197° South  Level Estimated
08:14PM 38.0979 121.1889 197° South  Level Estimated
08:15PM 38.0019 121.1508 197° South  Level Estimated
08:16PM 37.9058 121.1127 197° South  Level Estimated
08:17PM 37.8098 121.0748 197° South  Level Estimated
08:18PM 37.7137 121.0369 197° South  Level Estimated
08:19PM 37.6176 120.9992 197° South  Level Estimated
08:20PM 37.5215 120.9615 197° South  Level Estimated
08:21PM 37.4254 120.9239 197° South  Level Estimated
08:22PM 37.3293 120.8865 197° South  Level Estimated
08:23PM 37.2332 120.8491 197° South  Level Estimated
08:24PM 37.1370 120.8118 197° South  Level Estimated
08:25PM 37.0409 120.7746 197° South  Level Estimated
08:26PM 36.9447 120.7375 197° South  Level Estimated
08:27PM 36.8485 120.7005 197° South  Level Estimated
08:28PM 36.7524 120.6636 197° South  Level Estimated
08:29PM 36.6562 120.6268 197° South  Level Estimated
08:30PM 36.5600 120.5901 197° South  Level Estimated
08:31PM 36.4637 120.5534 197° South  Level Estimated
08:32PM 36.3675 120.5169 197° South  Level Estimated
08:33PM 36.2713 120.4805 197° South  Level Estimated
08:34PM 36.1750 120.4441 197° South  Level Estimated
08:35PM 36.0787 120.4078 197° South  Level Estimated
08:36PM 35.9824 120.3716 197° South  Level Estimated
08:37PM 35.8862 120.3355 197° South  Level Estimated
08:38PM 35.7899 120.2995 197° South  Level Estimated
08:39PM 35.6936 120.2636 197° South  Level Estimated
08:40PM 35.5972 120.2278 197° South  Level Estimated
08:41PM 35.5009 120.1920 197° South  Level Estimated
08:42PM 35.4046 120.1564 197° South  Level Estimated
08:43PM 35.3082 120.1208 197° South  Level Estimated
08:44PM 35.2118 120.0853 197° South  Level Estimated
08:45PM 35.1155 120.0499 197° South  Level Estimated
08:46PM 35.0191 120.0146 197° South  Level Estimated
08:47PM 34.9227 119.9793 197° South  Level Estimated
08:48PM 34.8263 119.9442 197° South  Level Estimated
08:49PM 34.7299 119.9091 197° South  Level Estimated
08:50PM 34.6335 119.8741 197° South  Level Estimated
08:51PM 34.5370 119.8392 197° South  Level Estimated
08:52PM 34.4406 119.8044 197° South  Level Estimated
08:53PM 34.3441 119.7696 197° South  Level Estimated
08:54PM 34.2477 119.7350 197° South  Level Estimated
08:55PM 34.1512 119.7004 197° South  Level Estimated
08:56PM 34.0547 119.6659 197° South  Level Estimated
08:57PM 33.9582 119.6314 196° South  Level Estimated
08:58PM 33.8617 119.5971 196° South  Level Estimated
08:59PM 33.7652 119.5628 196° South  Level Estimated
09:00PM 33.6687 119.5286 196° South  Level Estimated
09:01PM 33.5722 119.4945 196° South  Level Estimated
09:02PM 33.4756 119.4604 196° South  Level Estimated
09:03PM 33.3791 119.4265 196° South  Level Estimated
09:04PM 33.2825 119.3926 196° South  Level Estimated
09:05PM 33.1859 119.3587 196° South  Level Estimated
09:06PM 33.0894 119.3250 196° South  Level Estimated
09:07PM 32.9928 119.2913 196° South  Level Estimated
09:08PM 32.8962 119.2577 196° South  Level Estimated
09:09PM 32.7996 119.2242 196° South  Level Estimated
09:10PM 32.7030 119.1907 196° South  Level Estimated
09:11PM 32.6063 119.1573 196° South  Level Estimated
09:12PM 32.5097 119.1240 196° South  Level Estimated
09:13PM 32.4131 119.0908 196° South  Level Estimated
09:14PM 32.3164 119.0576 196° South  Level Estimated
09:15PM 32.2198 119.0245 196° South  Level Estimated
09:16PM 32.1231 118.9915 196° South  Level Estimated
09:17PM 32.0264 118.9586 196° South  Level Estimated
09:18PM 31.9298 118.9257 196° South  Level Estimated
09:19PM 31.8331 118.8929 196° South  Level Estimated
09:20PM 31.7421 118.8620 196° South  Level Estimated
09:21PM 31.7421 118.8620 North  Level Estimated
09:22PM 31.7421 118.8620 North  Level Estimated
09:23PM 31.7421 118.8620 North  Level Estimated
09:24PM 31.7421 118.8620 North  Level Estimated
09:25PM 31.7421 118.8620 North  Level Estimated
09:26PM 31.7421 118.8620 North  Level Estimated
09:27PM 31.7421 118.8620 North  Level Estimated
09:28PM 31.7421 118.8620 North  Level Estimated
09:29PM 31.7421 118.8620 North  Level Estimated